Time;durP1;ratioP1;P1;durP2;ratioP2;P2;SDS_P1;SDS_P2;PMS_P1;PMS_P2;Temp;Humidity;BMP_temperature;BMP_pressure;BME280_temperature;BME280_humidity;BME280_pressure;Samples;Min_cycle;Max_cycle;Signal;HPM_P1;HPM_P2
2023/05/15 00:00:25;;;;;;;9.57;8.57;;;9.40;99.90;;;;;;5045474;28;20510;-78
2023/05/15 00:02:52;;;;;;;9.83;8.80;;;9.40;99.90;;;;;;5031989;28;20515;-77
2023/05/15 00:05:19;;;;;;;10.33;9.37;;;9.40;99.90;;;;;;5043026;28;20457;-82
2023/05/15 00:07:47;;;;;;;9.43;8.27;;;9.50;99.90;;;;;;5044004;28;20519;-81
2023/05/15 00:10:14;;;;;;;12.00;9.70;;;9.50;99.90;;;;;;5044605;28;20571;-78
2023/05/15 00:12:41;;;;;;;9.63;8.23;;;9.40;99.90;;;;;;5046709;28;20535;-77
2023/05/15 00:15:09;;;;;;;13.30;9.47;;;9.50;99.90;;;;;;5043227;28;20446;-79
2023/05/15 00:17:36;;;;;;;11.00;9.20;;;9.50;99.90;;;;;;5046697;28;20471;-77
2023/05/15 00:20:03;;;;;;;11.47;8.83;;;9.50;99.90;;;;;;5041881;28;20439;-78
2023/05/15 00:22:30;;;;;;;10.57;8.20;;;9.50;99.90;;;;;;5038061;28;20734;-77
2023/05/15 00:24:59;;;;;;;10.83;9.73;;;9.50;99.90;;;;;;5039047;28;20461;-78
2023/05/15 00:27:26;;;;;;;13.20;9.10;;;9.50;99.90;;;;;;5046220;28;20525;-78
2023/05/15 00:29:53;;;;;;;13.70;9.50;;;9.40;99.90;;;;;;5043855;28;20473;-77
2023/05/15 00:32:20;;;;;;;10.10;9.10;;;9.30;99.90;;;;;;5045964;28;20489;-80
2023/05/15 00:34:47;;;;;;;12.60;9.47;;;9.40;99.90;;;;;;5041956;28;21135;-77
2023/05/15 00:37:15;;;;;;;10.20;9.20;;;9.40;99.90;;;;;;5040104;28;20462;-78
2023/05/15 00:39:41;;;;;;;12.43;9.40;;;9.40;99.90;;;;;;5045695;28;21119;-77
2023/05/15 00:42:10;;;;;;;11.23;9.13;;;9.40;99.90;;;;;;5040582;28;20511;-81
2023/05/15 00:44:40;;;;;;;10.70;8.60;;;9.40;99.90;;;;;;5041465;28;20524;-78
2023/05/15 00:47:07;;;;;;;10.13;8.13;;;9.40;99.90;;;;;;5046434;28;20453;-78
2023/05/15 00:49:36;;;;;;;9.83;8.77;;;9.40;99.90;;;;;;5034627;28;20455;-77
2023/05/15 00:52:04;;;;;;;7.67;6.93;;;9.40;99.90;;;;;;5041707;28;20480;-78
2023/05/15 00:54:31;;;;;;;7.27;6.57;;;9.40;99.90;;;;;;5032669;28;20442;-78
2023/05/15 00:56:59;;;;;;;9.73;7.87;;;9.40;99.90;;;;;;5040880;28;21035;-78
2023/05/15 00:59:28;;;;;;;7.70;6.53;;;9.40;99.90;;;;;;5033900;28;20439;-78
2023/05/15 01:01:55;;;;;;;8.17;7.47;;;9.30;99.90;;;;;;5037108;28;20460;-77
2023/05/15 01:04:22;;;;;;;10.53;7.90;;;9.30;99.90;;;;;;5037630;28;20453;-80
2023/05/15 01:06:52;;;;;;;10.90;8.77;;;9.30;99.90;;;;;;5041209;28;20446;-80
2023/05/15 01:09:20;;;;;;;8.10;7.40;;;9.30;99.90;;;;;;5043319;28;20497;-80
2023/05/15 01:11:50;;;;;;;8.57;7.60;;;9.30;99.90;;;;;;5038292;28;20493;-78
2023/05/15 01:14:17;;;;;;;7.30;6.60;;;9.30;99.90;;;;;;5039060;28;20449;-77
2023/05/15 01:16:46;;;;;;;8.53;7.63;;;9.40;99.90;;;;;;5040922;28;20453;-78
2023/05/15 01:19:13;;;;;;;8.50;6.97;;;9.30;99.90;;;;;;5045658;28;20489;-78
2023/05/15 01:22:19;;;;;;;8.50;7.73;;;9.40;99.90;;;;;;5044164;28;20437;-78
2023/05/15 01:25:11;;;;;;;9.67;8.63;;;9.40;99.90;;;;;;5015351;28;20950;-82
2023/05/15 01:27:44;;;;;;;8.97;7.80;;;9.40;99.90;;;;;;5002166;28;20503;-80
2023/05/15 01:30:18;;;;;;;8.13;7.30;;;9.40;99.90;;;;;;5035906;28;20476;-78
2023/05/15 01:32:51;;;;;;;10.37;7.73;;;9.40;99.90;;;;;;5033778;28;20460;-80
2023/05/15 01:35:23;;;;;;;9.57;7.37;;;9.40;99.90;;;;;;5032740;28;20437;-78
2023/05/15 01:37:55;;;;;;;8.60;7.70;;;9.50;99.90;;;;;;5036575;28;20465;-77
2023/05/15 01:40:25;;;;;;;9.73;8.73;;;9.40;99.90;;;;;;5033947;28;20442;-77
2023/05/15 01:42:55;;;;;;;8.47;7.53;;;9.50;99.90;;;;;;5041070;28;20835;-79
2023/05/15 01:45:25;;;;;;;10.10;7.00;;;9.50;99.90;;;;;;5039287;28;20461;-82
2023/05/15 01:47:54;;;;;;;13.17;7.70;;;9.50;99.90;;;;;;5040954;28;20474;-79
2023/05/15 01:50:22;;;;;;;12.23;7.23;;;9.50;99.90;;;;;;5029970;28;20450;-77
2023/05/15 01:52:51;;;;;;;8.27;7.30;;;9.50;99.90;;;;;;5030430;28;20513;-77
2023/05/15 01:55:20;;;;;;;8.10;5.90;;;9.50;99.90;;;;;;5040108;28;21045;-77
2023/05/15 01:57:48;;;;;;;9.07;7.50;;;9.50;99.90;;;;;;5037004;28;20531;-77
2023/05/15 02:00:17;;;;;;;8.83;7.93;;;9.50;99.90;;;;;;5040645;28;20814;-78
2023/05/15 02:02:45;;;;;;;9.60;7.90;;;9.60;99.90;;;;;;5037947;28;20528;-78
2023/05/15 02:05:14;;;;;;;8.60;6.57;;;9.60;99.90;;;;;;5033304;28;20928;-80
2023/05/15 02:07:42;;;;;;;6.73;6.10;;;9.60;99.90;;;;;;5038818;28;20453;-77
2023/05/15 02:10:11;;;;;;;12.60;8.13;;;9.50;99.90;;;;;;5046402;28;20483;-77
2023/05/15 02:12:40;;;;;;;9.27;7.10;;;9.50;99.90;;;;;;5040459;28;20477;-79
2023/05/15 02:15:10;;;;;;;9.47;6.90;;;9.50;99.90;;;;;;5039769;28;20453;-79
2023/05/15 02:17:38;;;;;;;7.90;5.03;;;9.40;99.90;;;;;;5043806;28;20521;-77
2023/05/15 02:20:07;;;;;;;7.10;6.17;;;9.30;99.90;;;;;;5043365;28;20461;-77
2023/05/15 02:22:34;;;;;;;6.60;5.40;;;9.20;99.90;;;;;;5044544;28;20503;-77
2023/05/15 02:25:01;;;;;;;4.53;4.10;;;9.20;99.90;;;;;;5039908;28;20451;-79
2023/05/15 02:27:31;;;;;;;6.90;5.80;;;9.10;99.90;;;;;;5039295;28;20441;-78
2023/05/15 02:30:07;;;;;;;8.50;6.60;;;9.20;99.90;;;;;;5036453;28;20450;-79
2023/05/15 02:32:43;;;;;;;5.00;4.10;;;9.10;99.90;;;;;;5029073;28;20481;-77
2023/05/15 02:35:18;;;;;;;2.73;2.20;;;9.10;99.90;;;;;;5033550;28;20929;-80
2023/05/15 02:37:49;;;;;;;2.40;1.93;;;9.00;99.90;;;;;;5039508;28;20457;-77
2023/05/15 02:40:17;;;;;;;2.67;2.37;;;8.90;99.90;;;;;;5038025;28;20994;-77
2023/05/15 02:42:46;;;;;;;3.20;2.60;;;8.90;99.90;;;;;;5029596;28;20529;-78
2023/05/15 02:45:13;;;;;;;4.63;3.87;;;8.90;99.90;;;;;;4994232;28;20486;-77
2023/05/15 02:47:42;;;;;;;4.13;3.03;;;9.00;99.90;;;;;;4991436;28;21299;-80
2023/05/15 02:50:10;;;;;;;5.93;3.60;;;8.90;99.90;;;;;;5000362;28;20537;-79
2023/05/15 02:52:37;;;;;;;4.33;3.53;;;8.90;99.90;;;;;;4992084;28;20546;-77
2023/05/15 02:55:05;;;;;;;3.80;2.57;;;8.90;99.90;;;;;;4996858;28;20452;-77
2023/05/15 02:57:32;;;;;;;2.80;2.27;;;8.90;99.90;;;;;;4994324;28;20440;-80
2023/05/15 02:59:59;;;;;;;2.97;2.33;;;8.90;99.90;;;;;;4997816;28;20452;-80
2023/05/15 03:02:26;;;;;;;3.43;2.77;;;8.90;99.90;;;;;;4999449;28;20540;-79
2023/05/15 03:04:55;;;;;;;2.90;2.30;;;8.90;99.90;;;;;;4992440;28;20929;-78
2023/05/15 03:07:22;;;;;;;4.27;2.60;;;8.90;99.90;;;;;;4997467;28;20447;-77
2023/05/15 03:09:49;;;;;;;5.00;3.30;;;8.90;99.90;;;;;;4986921;28;20456;-82
2023/05/15 03:12:16;;;;;;;5.43;3.40;;;8.80;99.90;;;;;;4999447;28;20482;-77
2023/05/15 03:14:43;;;;;;;2.67;2.47;;;8.90;99.90;;;;;;5002230;28;20531;-77
2023/05/15 03:17:10;;;;;;;8.00;4.07;;;9.00;99.90;;;;;;5004717;28;20444;-77
2023/05/15 03:19:37;;;;;;;3.27;3.00;;;9.00;99.90;;;;;;5003606;28;20896;-78
2023/05/15 03:22:06;;;;;;;3.87;2.60;;;9.10;99.90;;;;;;5000961;28;21037;-77
2023/05/15 03:24:32;;;;;;;2.70;2.30;;;9.10;99.90;;;;;;4994388;28;20538;-77
2023/05/15 03:26:59;;;;;;;2.50;2.30;;;9.00;99.90;;;;;;5014697;28;20453;-80
2023/05/15 03:29:26;;;;;;;3.03;2.73;;;9.00;99.90;;;;;;5008578;28;20463;-81
2023/05/15 03:31:53;;;;;;;1.73;1.63;;;9.00;99.90;;;;;;5008731;28;20483;-77
2023/05/15 03:34:20;;;;;;;4.50;2.10;;;9.00;99.90;;;;;;5000517;28;21274;-79
2023/05/15 03:36:47;;;;;;;3.17;2.53;;;9.00;99.90;;;;;;4999360;28;20514;-77
2023/05/15 03:39:16;;;;;;;3.47;3.17;;;9.00;99.90;;;;;;5013693;28;20490;-78
2023/05/15 03:41:42;;;;;;;3.47;3.17;;;9.00;99.90;;;;;;4990844;28;20521;-77
2023/05/15 03:44:09;;;;;;;3.53;3.20;;;9.00;99.90;;;;;;5023385;28;20477;-77
2023/05/15 03:46:37;;;;;;;3.10;2.80;;;9.10;99.90;;;;;;5039827;28;20452;-81
2023/05/15 03:49:03;;;;;;;3.73;3.47;;;9.20;99.90;;;;;;5039353;28;20929;-77
2023/05/15 03:51:30;;;;;;;5.17;3.37;;;9.20;99.90;;;;;;5039396;28;20486;-80
2023/05/15 03:53:57;;;;;;;4.60;4.20;;;9.20;99.90;;;;;;5036544;28;20499;-77
2023/05/15 03:56:26;;;;;;;2.83;2.63;;;9.20;99.90;;;;;;5044257;28;20518;-77
2023/05/15 03:58:53;;;;;;;3.80;3.50;;;9.30;99.90;;;;;;5042678;28;20446;-77
2023/05/15 04:01:20;;;;;;;4.73;4.30;;;9.30;99.90;;;;;;5038164;28;20461;-77
2023/05/15 04:03:47;;;;;;;3.03;2.67;;;9.30;99.90;;;;;;5034587;28;21141;-79
2023/05/15 04:06:14;;;;;;;3.10;2.80;;;9.30;99.90;;;;;;5035747;28;20499;-77
2023/05/15 04:08:41;;;;;;;3.80;3.50;;;9.30;99.90;;;;;;5041386;28;20507;-77
2023/05/15 04:11:08;;;;;;;3.50;3.20;;;9.40;99.90;;;;;;5037500;28;20533;-78
2023/05/15 04:13:36;;;;;;;3.40;3.10;;;9.40;99.90;;;;;;5045767;28;20449;-80
2023/05/15 04:16:04;;;;;;;4.10;3.70;;;9.40;99.90;;;;;;5041599;28;20450;-77
2023/05/15 04:18:31;;;;;;;3.77;2.87;;;9.40;99.90;;;;;;5043612;28;20461;-77
2023/05/15 04:20:58;;;;;;;3.40;3.03;;;9.50;99.90;;;;;;5039730;28;21008;-77
2023/05/15 04:23:25;;;;;;;3.90;3.60;;;9.60;99.90;;;;;;5044609;28;20461;-77
2023/05/15 04:25:52;;;;;;;3.97;3.60;;;9.50;99.90;;;;;;5046317;28;20445;-77
2023/05/15 04:28:20;;;;;;;3.33;3.03;;;9.50;99.90;;;;;;5042308;28;20453;-77
2023/05/15 04:30:48;;;;;;;6.23;2.97;;;9.50;99.90;;;;;;5046008;28;20448;-77
2023/05/15 04:33:15;;;;;;;2.53;2.30;;;9.60;99.90;;;;;;5045104;28;20507;-82
2023/05/15 04:35:42;;;;;;;3.20;3.00;;;9.60;99.90;;;;;;5041113;28;20445;-81
2023/05/15 04:38:09;;;;;;;2.73;2.53;;;9.70;99.90;;;;;;5036303;28;20454;-78
2023/05/15 04:40:36;;;;;;;2.40;2.20;;;9.60;99.90;;;;;;5032624;28;20515;-78
2023/05/15 04:43:04;;;;;;;2.60;2.50;;;9.70;99.90;;;;;;5040966;28;20530;-80
2023/05/15 04:45:31;;;;;;;2.70;2.40;;;9.80;99.90;;;;;;5032005;28;20450;-78
2023/05/15 04:48:00;;;;;;;3.33;3.03;;;9.80;99.90;;;;;;5045102;28;20450;-78
2023/05/15 04:50:27;;;;;;;3.60;3.30;;;9.90;99.90;;;;;;5035201;28;20457;-79
2023/05/15 04:52:54;;;;;;;3.67;3.37;;;10.00;99.90;;;;;;5045845;28;20501;-78
2023/05/15 04:55:21;;;;;;;4.00;3.37;;;9.90;99.90;;;;;;5038571;28;21203;-78
2023/05/15 04:57:48;;;;;;;2.30;2.10;;;10.00;99.90;;;;;;5045636;28;20844;-78
2023/05/15 05:00:15;;;;;;;1.40;1.30;;;10.00;99.90;;;;;;5045020;28;20524;-78
2023/05/15 05:02:42;;;;;;;1.20;1.10;;;9.90;99.90;;;;;;5037800;28;20470;-78
2023/05/15 05:05:13;;;;;;;3.43;1.33;;;9.90;99.90;;;;;;5045353;28;21001;-78
2023/05/15 05:07:41;;;;;;;1.17;1.07;;;9.90;99.90;;;;;;5037479;28;20993;-78
2023/05/15 05:10:09;;;;;;;1.67;1.57;;;9.80;99.90;;;;;;5043765;28;20834;-78
2023/05/15 05:12:36;;;;;;;2.07;1.87;;;9.90;99.90;;;;;;5038224;28;20482;-78
2023/05/15 05:15:03;;;;;;;9.10;6.80;;;10.00;99.90;;;;;;5038177;28;21258;-74
2023/05/15 05:17:30;;;;;;;17.73;12.90;;;10.00;99.90;;;;;;5037899;28;21769;-81
2023/05/15 05:19:57;;;;;;;7.00;6.37;;;10.20;99.90;;;;;;5029861;28;20442;-77
2023/05/15 05:22:26;;;;;;;4.53;4.10;;;10.40;99.90;;;;;;5030378;28;21002;-74
2023/05/15 05:24:53;;;;;;;4.90;4.37;;;10.60;99.90;;;;;;5044516;28;20451;-76
2023/05/15 05:27:20;;;;;;;3.30;3.10;;;10.70;99.90;;;;;;5041047;28;20465;-75
2023/05/15 05:29:47;;;;;;;3.90;3.60;;;10.70;99.90;;;;;;5038735;28;20913;-77
2023/05/15 05:32:14;;;;;;;3.03;2.83;;;10.70;99.90;;;;;;5034034;28;21048;-77
2023/05/15 05:34:41;;;;;;;3.10;2.90;;;10.80;99.90;;;;;;5035102;28;20446;-77
2023/05/15 05:37:08;;;;;;;2.83;2.63;;;10.80;99.90;;;;;;5033169;28;20826;-78
2023/05/15 05:39:37;;;;;;;2.83;2.70;;;10.90;99.90;;;;;;5045535;28;20457;-82
2023/05/15 05:42:04;;;;;;;3.23;2.93;;;10.90;99.90;;;;;;5046491;28;20798;-76
2023/05/15 05:44:31;;;;;;;2.60;2.40;;;10.90;99.90;;;;;;5044093;28;20488;-79
2023/05/15 05:46:58;;;;;;;2.00;1.90;;;10.90;99.90;;;;;;5046458;28;20445;-77
2023/05/15 05:49:25;;;;;;;2.20;2.10;;;11.10;99.90;;;;;;5040388;28;20457;-79
2023/05/15 05:51:52;;;;;;;4.03;3.73;;;11.10;99.90;;;;;;5042571;28;21244;-78
2023/05/15 05:54:19;;;;;;;2.63;2.00;;;11.00;99.90;;;;;;5042372;28;20477;-78
2023/05/15 05:56:48;;;;;;;4.53;4.13;;;10.90;99.90;;;;;;5043336;28;20461;-78
2023/05/15 05:59:15;;;;;;;3.30;3.03;;;11.00;99.90;;;;;;5042129;28;20881;-78
2023/05/15 06:01:42;;;;;;;2.03;1.87;;;10.90;99.90;;;;;;5042155;28;20465;-78
2023/05/15 06:04:09;;;;;;;1.70;1.60;;;10.90;99.90;;;;;;5039993;28;21190;-77
2023/05/15 06:06:36;;;;;;;2.47;2.27;;;10.90;99.90;;;;;;5036450;28;20827;-78
2023/05/15 06:09:04;;;;;;;1.73;1.63;;;11.00;99.90;;;;;;5042296;28;20500;-79
2023/05/15 06:11:31;;;;;;;1.63;1.30;;;11.10;99.90;;;;;;5035044;28;20462;-81
2023/05/15 06:13:59;;;;;;;2.43;1.70;;;11.10;99.90;;;;;;5028347;28;20481;-78
2023/05/15 06:16:27;;;;;;;1.67;1.57;;;11.10;99.90;;;;;;5043734;28;20474;-80
2023/05/15 06:18:53;;;;;;;2.03;1.93;;;11.10;99.90;;;;;;5034006;28;20472;-78
2023/05/15 06:21:21;;;;;;;1.00;0.80;;;11.20;99.90;;;;;;5035389;28;20500;-81
2023/05/15 06:23:48;;;;;;;1.10;0.87;;;11.10;99.90;;;;;;5043062;28;20488;-78
2023/05/15 06:26:14;;;;;;;1.10;1.00;;;11.40;99.90;;;;;;5038284;28;20530;-79
2023/05/15 06:28:41;;;;;;;1.20;1.03;;;11.60;99.90;;;;;;5040392;28;20526;-79
2023/05/15 06:31:10;;;;;;;0.73;0.73;;;11.50;99.90;;;;;;5040157;28;20465;-78
2023/05/15 06:33:37;;;;;;;1.60;1.20;;;11.50;99.90;;;;;;5034707;28;20481;-79
2023/05/15 06:36:04;;;;;;;0.73;0.60;;;11.40;99.90;;;;;;5042658;28;21032;-78
2023/05/15 06:38:31;;;;;;;1.20;1.07;;;11.50;99.90;;;;;;5032283;28;20867;-82
2023/05/15 06:40:58;;;;;;;1.10;0.87;;;11.40;99.90;;;;;;5033810;28;20507;-80
2023/05/15 06:43:25;;;;;;;4.10;0.97;;;11.30;99.90;;;;;;5040904;28;20473;-82
2023/05/15 06:45:52;;;;;;;0.90;0.90;;;11.40;99.90;;;;;;5032227;28;20449;-79
2023/05/15 06:48:20;;;;;;;1.67;0.90;;;11.50;99.90;;;;;;5044736;28;20461;-78
2023/05/15 06:50:47;;;;;;;2.13;1.93;;;11.40;99.90;;;;;;5043730;28;20872;-78
2023/05/15 06:53:16;;;;;;;2.87;1.40;;;11.50;99.90;;;;;;5040405;28;20480;-79
2023/05/15 06:55:43;;;;;;;3.87;2.50;;;11.70;99.90;;;;;;5046725;28;20476;-80
2023/05/15 06:58:10;;;;;;;3.63;1.63;;;11.80;99.90;;;;;;5060299;28;20551;-78
2023/05/15 07:00:37;;;;;;;1.77;1.67;;;11.90;99.90;;;;;;5052844;28;20452;-79
2023/05/15 07:03:05;;;;;;;1.50;1.40;;;11.90;99.90;;;;;;5051013;28;20732;-79
2023/05/15 07:05:33;;;;;;;2.70;2.17;;;11.90;99.90;;;;;;5051489;28;20464;-81
2023/05/15 07:08:00;;;;;;;1.30;1.20;;;12.00;99.90;;;;;;5050439;28;20448;-79
2023/05/15 07:10:27;;;;;;;1.97;1.87;;;12.20;99.90;;;;;;5043257;28;20877;-83
2023/05/15 07:12:54;;;;;;;1.70;1.60;;;12.20;99.90;;;;;;5040305;28;20740;-80
2023/05/15 07:15:21;;;;;;;1.80;1.70;;;12.30;99.90;;;;;;5037705;28;20440;-82
2023/05/15 07:17:48;;;;;;;1.90;1.80;;;12.40;99.90;;;;;;5048811;28;20448;-79
2023/05/15 07:20:15;;;;;;;2.00;1.43;;;12.20;99.90;;;;;;5047933;28;21034;-81
2023/05/15 07:22:44;;;;;;;1.87;1.43;;;12.20;99.90;;;;;;5038144;28;20476;-80
2023/05/15 07:25:10;;;;;;;2.20;1.20;;;12.10;99.90;;;;;;5046375;28;20453;-84
2023/05/15 07:27:37;;;;;;;2.23;1.30;;;12.10;99.90;;;;;;5039846;28;20498;-80
2023/05/15 07:30:05;;;;;;;1.00;0.70;;;12.10;99.90;;;;;;5045659;28;20464;-80
2023/05/15 07:32:32;;;;;;;1.90;1.00;;;12.30;99.90;;;;;;5033848;28;20479;-80
2023/05/15 07:34:59;;;;;;;2.60;0.80;;;12.30;99.90;;;;;;5030333;28;20454;-79
2023/05/15 07:37:26;;;;;;;0.80;0.80;;;12.30;99.90;;;;;;5037892;28;20457;-83
2023/05/15 07:39:55;;;;;;;2.30;1.70;;;12.30;99.90;;;;;;5035441;28;20465;-81
2023/05/15 07:42:22;;;;;;;0.90;0.60;;;12.50;99.90;;;;;;5046715;28;20449;-79
2023/05/15 07:44:49;;;;;;;1.93;1.00;;;12.40;99.90;;;;;;5042854;28;20530;-81
2023/05/15 07:47:16;;;;;;;0.67;0.60;;;12.40;99.90;;;;;;5044095;28;20450;-80
2023/05/15 07:49:42;;;;;;;0.87;0.87;;;12.30;99.90;;;;;;5044449;28;20473;-80
2023/05/15 07:52:09;;;;;;;1.27;0.70;;;12.20;99.90;;;;;;5046260;28;20449;-79
2023/05/15 07:54:38;;;;;;;1.37;1.10;;;12.20;99.90;;;;;;5040245;28;20481;-80
2023/05/15 07:57:06;;;;;;;0.70;0.70;;;12.20;99.90;;;;;;5042227;28;20943;-83
2023/05/15 07:59:35;;;;;;;0.70;0.70;;;12.30;99.90;;;;;;5044974;28;20441;-83
2023/05/15 08:02:02;;;;;;;1.17;0.70;;;12.30;99.90;;;;;;5045060;28;20614;-81
2023/05/15 08:04:29;;;;;;;1.13;1.03;;;12.40;99.90;;;;;;5042093;28;20817;-80
2023/05/15 08:06:56;;;;;;;0.60;0.60;;;12.50;99.90;;;;;;5034281;28;20472;-81
2023/05/15 08:09:23;;;;;;;1.43;0.60;;;12.60;99.90;;;;;;5034254;28;21006;-79
2023/05/15 08:11:50;;;;;;;0.60;0.50;;;12.80;99.90;;;;;;5041953;28;20453;-80
2023/05/15 08:14:18;;;;;;;1.53;0.53;;;13.20;99.90;;;;;;5032009;28;20539;-80
2023/05/15 08:16:45;;;;;;;0.60;0.50;;;13.40;99.90;;;;;;5045439;28;20473;-81
2023/05/15 08:19:12;;;;;;;0.60;0.50;;;13.20;99.90;;;;;;5037087;28;20446;-82
2023/05/15 08:21:39;;;;;;;0.80;0.40;;;13.00;99.90;;;;;;5034541;28;20676;-81
2023/05/15 08:24:07;;;;;;;0.50;0.43;;;12.80;99.90;;;;;;5044593;28;21348;-82
2023/05/15 08:26:34;;;;;;;0.70;0.60;;;12.80;99.90;;;;;;5040399;28;20512;-80
2023/05/15 08:29:01;;;;;;;0.40;0.33;;;12.80;99.90;;;;;;5039031;28;20460;-80
2023/05/15 08:31:29;;;;;;;1.67;0.40;;;12.80;99.90;;;;;;5042652;28;20465;-81
2023/05/15 08:33:56;;;;;;;0.60;0.50;;;12.80;99.90;;;;;;5034781;28;20540;-79
2023/05/15 08:36:23;;;;;;;4.73;0.60;;;12.80;99.90;;;;;;5029477;28;20508;-78
2023/05/15 08:38:50;;;;;;;0.40;0.40;;;12.90;99.90;;;;;;5040411;28;20503;-77
2023/05/15 08:41:30;;;;;;;0.60;0.50;;;12.60;99.90;;;;;;5041362;28;20453;-79
2023/05/15 08:43:58;;;;;;;0.50;0.43;;;12.60;99.90;;;;;;5044959;28;20487;-79
2023/05/15 08:46:26;;;;;;;0.53;0.40;;;12.60;99.90;;;;;;5047257;28;20507;-78
2023/05/15 08:48:56;;;;;;;0.50;0.50;;;12.70;99.90;;;;;;5047445;28;20453;-79
2023/05/15 08:51:24;;;;;;;0.50;0.40;;;12.60;99.90;;;;;;5048568;28;20461;-81
2023/05/15 08:53:51;;;;;;;0.57;0.50;;;12.60;99.90;;;;;;5047035;28;20489;-79
2023/05/15 08:56:19;;;;;;;0.77;0.77;;;12.70;99.90;;;;;;5048098;28;20441;-77
2023/05/15 08:58:46;;;;;;;0.60;0.60;;;12.80;99.90;;;;;;5047756;28;20531;-79
2023/05/15 09:01:15;;;;;;;0.40;0.40;;;12.80;99.90;;;;;;5042477;28;20519;-79
2023/05/15 09:03:42;;;;;;;0.47;0.40;;;12.90;99.90;;;;;;5047300;28;20545;-77
2023/05/15 09:06:11;;;;;;;0.47;0.47;;;12.80;99.90;;;;;;5048465;28;20441;-79
2023/05/15 09:08:39;;;;;;;0.50;0.50;;;12.60;99.90;;;;;;5042150;28;20449;-79
2023/05/15 09:11:07;;;;;;;1.13;0.50;;;12.50;99.90;;;;;;5045645;28;20519;-79
2023/05/15 09:13:34;;;;;;;0.53;0.50;;;12.60;99.90;;;;;;5036226;28;21122;-80
2023/05/15 09:16:01;;;;;;;0.47;0.47;;;12.60;99.90;;;;;;5030519;28;20446;-82
2023/05/15 09:18:28;;;;;;;0.50;0.40;;;12.80;99.90;;;;;;5036489;28;20925;-77
2023/05/15 09:20:55;;;;;;;0.50;0.50;;;12.70;99.90;;;;;;5042552;28;20462;-79
2023/05/15 09:23:26;;;;;;;1.00;0.67;;;12.80;99.90;;;;;;5040469;28;20519;-79
2023/05/15 09:25:55;;;;;;;0.90;0.60;;;12.90;99.90;;;;;;5044931;28;20520;-78
2023/05/15 09:28:27;;;;;;;0.60;0.60;;;13.10;99.90;;;;;;5040715;28;20465;-79
2023/05/15 09:30:59;;;;;;;0.70;0.70;;;13.00;99.90;;;;;;5044795;28;20460;-78
2023/05/15 09:33:31;;;;;;;0.63;0.63;;;13.00;99.90;;;;;;5042832;28;20481;-78
2023/05/15 09:35:58;;;;;;;0.50;0.50;;;12.90;99.90;;;;;;5039283;28;20515;-80
2023/05/15 09:38:27;;;;;;;0.60;0.60;;;12.90;99.90;;;;;;5032866;28;20451;-78
2023/05/15 09:41:02;;;;;;;0.47;0.40;;;12.90;99.90;;;;;;5045482;28;20457;-78
2023/05/15 09:43:29;;;;;;;0.70;0.50;;;13.00;99.90;;;;;;5047227;28;20483;-79
2023/05/15 09:45:57;;;;;;;0.47;0.47;;;13.20;99.90;;;;;;5045605;28;20453;-78
2023/05/15 09:48:25;;;;;;;1.37;0.50;;;13.30;99.90;;;;;;5045033;28;20461;-78
2023/05/15 09:50:52;;;;;;;0.50;0.50;;;13.50;99.90;;;;;;5046677;28;20453;-78
2023/05/15 09:53:19;;;;;;;0.50;0.50;;;13.80;99.90;;;;;;5045883;28;20481;-79
2023/05/15 09:55:48;;;;;;;0.60;0.60;;;14.30;99.90;;;;;;5033613;28;20490;-78
2023/05/15 09:58:17;;;;;;;0.80;0.80;;;14.40;99.90;;;;;;5046383;28;20449;-78
2023/05/15 10:00:45;;;;;;;0.50;0.40;;;14.20;99.90;;;;;;5045580;28;20515;-79
2023/05/15 10:03:13;;;;;;;0.40;0.40;;;14.50;99.90;;;;;;5046999;28;20457;-78
2023/05/15 10:05:40;;;;;;;0.50;0.50;;;14.50;99.90;;;;;;5045708;28;20483;-78
2023/05/15 10:08:07;;;;;;;0.50;0.50;;;14.60;99.90;;;;;;5040875;28;20504;-78
2023/05/15 10:10:34;;;;;;;0.50;0.40;;;14.80;99.90;;;;;;5044976;28;20465;-79
2023/05/15 10:13:04;;;;;;;0.40;0.40;;;14.70;99.90;;;;;;5038400;28;20480;-78
2023/05/15 10:15:31;;;;;;;1.20;0.60;;;15.00;99.90;;;;;;5048989;28;20492;-78
2023/05/15 10:17:59;;;;;;;0.50;0.50;;;15.00;99.90;;;;;;5052528;28;20501;-78
2023/05/15 10:20:27;;;;;;;0.50;0.40;;;14.90;99.90;;;;;;5051011;28;20441;-78
2023/05/15 10:22:55;;;;;;;0.50;0.40;;;15.30;99.90;;;;;;5043991;28;20445;-79
2023/05/15 10:25:28;;;;;;;0.53;0.40;;;15.10;99.90;;;;;;5046918;28;20511;-78
2023/05/15 10:27:55;;;;;;;0.70;0.40;;;14.70;99.90;;;;;;5036972;28;20459;-81
2023/05/15 10:30:25;;;;;;;0.50;0.40;;;14.60;99.90;;;;;;5046507;28;20445;-78
2023/05/15 10:32:52;;;;;;;0.53;0.50;;;14.60;99.90;;;;;;5035943;28;20452;-78
2023/05/15 10:35:19;;;;;;;0.50;0.50;;;14.30;99.90;;;;;;5037666;28;20484;-79
2023/05/15 10:37:48;;;;;;;0.70;0.50;;;14.20;99.90;;;;;;5037008;28;20457;-78
2023/05/15 10:40:16;;;;;;;0.93;0.40;;;14.60;99.90;;;;;;5033592;28;20559;-79
2023/05/15 10:42:45;;;;;;;0.60;0.50;;;14.80;99.90;;;;;;5036637;28;20456;-81
2023/05/15 10:45:13;;;;;;;2.30;0.60;;;14.30;99.90;;;;;;5040216;28;21058;-77
2023/05/15 10:47:44;;;;;;;0.70;0.50;;;13.80;99.90;;;;;;5044519;28;20457;-79
2023/05/15 10:50:14;;;;;;;1.17;0.60;;;13.40;99.90;;;;;;5044580;28;20449;-79
2023/05/15 10:52:41;;;;;;;0.60;0.60;;;13.00;99.90;;;;;;5042900;28;20445;-77
2023/05/15 10:55:13;;;;;;;1.07;0.70;;;12.80;99.90;;;;;;5042783;28;20513;-78
2023/05/15 10:57:40;;;;;;;0.87;0.60;;;12.70;99.90;;;;;;5042453;28;20935;-78
2023/05/15 11:00:25;;;;;;;0.83;0.83;;;12.60;99.90;;;;;;5043798;28;20512;-78
2023/05/15 11:02:55;;;;;;;1.83;0.70;;;12.40;99.90;;;;;;5044635;28;20563;-78
2023/05/15 11:05:23;;;;;;;0.70;0.70;;;12.50;99.90;;;;;;5041329;28;20453;-78
2023/05/15 11:08:27;;;;;;;0.80;0.80;;;12.60;99.90;;;;;;5033446;28;20933;-78
2023/05/15 11:10:54;;;;;;;0.80;0.80;;;12.60;99.90;;;;;;5032551;28;20564;-82
2023/05/15 11:13:21;;;;;;;0.60;0.60;;;12.90;99.90;;;;;;5036919;28;20449;-80
2023/05/15 11:15:48;;;;;;;0.70;0.70;;;13.40;99.90;;;;;;5033087;28;20515;-79
2023/05/15 11:18:17;;;;;;;0.80;0.80;;;13.40;99.90;;;;;;5032344;28;20479;-80
2023/05/15 11:21:08;;;;;;;0.83;0.83;;;13.50;99.90;;;;;;5032554;28;20499;-79
2023/05/15 11:23:40;;;;;;;0.60;0.60;;;13.70;99.90;;;;;;5038436;28;20448;-80
2023/05/15 11:26:08;;;;;;;0.87;0.87;;;13.70;99.90;;;;;;5037825;28;20512;-82
2023/05/15 11:28:43;;;;;;;0.60;0.60;;;13.80;99.90;;;;;;5042489;28;20457;-80
2023/05/15 11:31:10;;;;;;;0.60;0.60;;;13.80;99.90;;;;;;5037037;28;20434;-79
2023/05/15 11:33:40;;;;;;;1.90;0.70;;;13.90;99.90;;;;;;5041709;28;20839;-80
2023/05/15 11:36:08;;;;;;;0.70;0.70;;;14.30;99.90;;;;;;5046839;28;20790;-82
2023/05/15 11:38:39;;;;;;;1.00;1.00;;;14.50;99.90;;;;;;5041427;28;20985;-81
2023/05/15 11:41:18;;;;;;;0.70;0.70;;;14.60;99.90;;;;;;5038846;28;20476;-84
2023/05/15 11:43:46;;;;;;;0.70;0.70;;;14.30;99.90;;;;;;5048033;28;20852;-80
2023/05/15 11:46:13;;;;;;;0.70;0.70;;;14.00;99.90;;;;;;5044507;28;20540;-79
2023/05/15 11:48:43;;;;;;;0.80;0.70;;;13.80;99.90;;;;;;5045972;28;20902;-79
2023/05/15 11:51:19;;;;;;;0.70;0.60;;;13.90;99.90;;;;;;5048581;28;20441;-80
2023/05/15 11:53:46;;;;;;;0.80;0.80;;;14.20;99.90;;;;;;5044749;28;20464;-79
2023/05/15 11:56:18;;;;;;;0.70;0.70;;;14.40;99.90;;;;;;5036515;28;20445;-80
2023/05/15 11:58:47;;;;;;;0.70;0.70;;;14.70;99.90;;;;;;5042465;28;20471;-80
2023/05/15 12:01:14;;;;;;;1.00;0.80;;;14.80;99.90;;;;;;5045345;28;20460;-79
2023/05/15 12:03:42;;;;;;;0.60;0.60;;;14.70;99.90;;;;;;5040055;28;20980;-79
2023/05/15 12:06:11;;;;;;;0.80;0.70;;;14.60;99.90;;;;;;5031826;28;20514;-80
2023/05/15 12:08:38;;;;;;;0.60;0.60;;;14.70;99.90;;;;;;5044757;28;20473;-79
2023/05/15 12:11:05;;;;;;;4.83;0.70;;;14.80;99.90;;;;;;5035187;28;20487;-80
2023/05/15 12:13:33;;;;;;;0.63;0.63;;;14.90;99.90;;;;;;5042008;28;20465;-79
2023/05/15 12:16:02;;;;;;;0.70;0.70;;;15.10;99.90;;;;;;5040925;28;20528;-81
2023/05/15 12:18:30;;;;;;;0.80;0.70;;;14.30;99.90;;;;;;5046575;28;20447;-80
2023/05/15 12:20:58;;;;;;;0.97;0.97;;;14.30;99.90;;;;;;5042338;28;20577;-82
2023/05/15 12:23:27;;;;;;;1.23;0.80;;;14.70;99.90;;;;;;5042486;28;20460;-78
2023/05/15 12:25:57;;;;;;;1.40;1.30;;;15.00;99.90;;;;;;5048291;28;20676;-79
2023/05/15 12:28:25;;;;;;;1.00;0.80;;;15.00;99.90;;;;;;5046905;28;21046;-79
2023/05/15 12:30:52;;;;;;;0.80;0.80;;;14.70;99.90;;;;;;5045148;28;20445;-81
2023/05/15 12:33:20;;;;;;;2.07;1.00;;;14.70;99.90;;;;;;5038272;28;20437;-79
2023/05/15 12:35:53;;;;;;;0.80;0.80;;;14.50;99.90;;;;;;5039903;28;20481;-79
2023/05/15 12:38:23;;;;;;;1.50;1.40;;;14.50;99.90;;;;;;5040660;28;20441;-81
2023/05/15 12:40:53;;;;;;;2.20;1.17;;;14.60;99.90;;;;;;5043004;28;20445;-80
2023/05/15 12:43:23;;;;;;;1.10;1.00;;;14.80;99.90;;;;;;5043824;28;20576;-79
2023/05/15 12:45:52;;;;;;;0.80;0.80;;;14.70;99.90;;;;;;5045521;28;20617;-80
2023/05/15 12:48:20;;;;;;;1.00;0.90;;;15.00;99.90;;;;;;5039503;28;20440;-79
2023/05/15 12:50:47;;;;;;;0.80;0.80;;;15.60;99.90;;;;;;5043596;28;20515;-79
2023/05/15 12:53:15;;;;;;;1.13;0.90;;;16.50;99.90;;;;;;5040109;28;20461;-82
2023/05/15 12:55:45;;;;;;;0.90;0.90;;;16.60;99.90;;;;;;5038326;28;20931;-80